sensor_id;sensor_type;location;lat;lon;timestamp;pressure;altitude;pressure_sealevel;temperature;humidity
3434;BME280;1730;41.932;25.548;2022-09-01T00:00:45;99141.34;;;21.47;100.00
3434;BME280;1730;41.932;25.548;2022-09-01T00:03:16;99145.16;;;21.46;100.00
3434;BME280;1730;41.932;25.548;2022-09-01T00:05:42;99113.31;;;21.27;100.00
3434;BME280;1730;41.932;25.548;2022-09-01T00:08:09;99002.56;;;20.67;100.00
3434;BME280;1730;41.932;25.548;2022-09-01T00:10:35;98993.53;;;20.66;100.00
3434;BME280;1730;41.932;25.548;2022-09-01T00:13:00;98945.53;;;20.76;100.00
3434;BME280;1730;41.932;25.548;2022-09-01T00:15:28;99062.38;;;21.49;100.00
3434;BME280;1730;41.932;25.548;2022-09-01T00:17:53;98965.81;;;20.93;100.00
3434;BME280;1730;41.932;25.548;2022-09-01T00:20:19;99107.06;;;21.86;100.00
3434;BME280;1730;41.932;25.548;2022-09-01T00:22:44;99096.19;;;21.98;100.00
3434;BME280;1730;41.932;25.548;2022-09-01T00:25:10;99004.72;;;21.20;100.00
3434;BME280;1730;41.932;25.548;2022-09-01T00:27:36;99077.50;;;21.70;100.00
3434;BME280;1730;41.932;25.548;2022-09-01T00:30:01;99107.19;;;21.91;100.00
3434;BME280;1730;41.932;25.548;2022-09-01T00:32:27;99078.31;;;21.89;100.00
3434;BME280;1730;41.932;25.548;2022-09-01T00:34:53;99074.06;;;21.93;100.00
3434;BME280;1730;41.932;25.548;2022-09-01T00:37:18;99068.31;;;21.94;100.00
3434;BME280;1730;41.932;25.548;2022-09-01T00:39:44;99064.50;;;21.95;100.00
3434;BME280;1730;41.932;25.548;2022-09-01T00:42:10;99065.88;;;21.86;100.00
3434;BME280;1730;41.932;25.548;2022-09-01T00:44:35;99065.88;;;21.86;100.00
3434;BME280;1730;41.932;25.548;2022-09-01T00:47:03;99026.66;;;21.68;100.00
3434;BME280;1730;41.932;25.548;2022-09-01T00:49:37;99021.50;;;21.59;100.00
3434;BME280;1730;41.932;25.548;2022-09-01T00:52:15;99070.75;;;22.02;100.00
3434;BME280;1730;41.932;25.548;2022-09-01T00:54:47;99061.53;;;21.97;100.00
3434;BME280;1730;41.932;25.548;2022-09-01T00:57:14;99063.09;;;22.05;100.00
3434;BME280;1730;41.932;25.548;2022-09-01T00:59:46;99053.12;;;21.92;100.00
3434;BME280;1730;41.932;25.548;2022-09-01T01:02:14;99058.16;;;21.95;100.00
3434;BME280;1730;41.932;25.548;2022-09-01T01:04:40;99062.87;;;21.76;100.00
3434;BME280;1730;41.932;25.548;2022-09-01T01:07:09;99001.34;;;21.36;100.00
3434;BME280;1730;41.932;25.548;2022-09-01T01:09:39;98971.72;;;21.08;100.00
3434;BME280;1730;41.932;25.548;2022-09-01T01:12:07;99080.91;;;21.54;100.00
3434;BME280;1730;41.932;25.548;2022-09-01T01:14:36;99084.38;;;21.61;100.00
3434;BME280;1730;41.932;25.548;2022-09-01T01:17:04;99076.81;;;21.75;100.00
3434;BME280;1730;41.932;25.548;2022-09-01T01:19:42;98974.16;;;21.34;100.00
3434;BME280;1730;41.932;25.548;2022-09-01T01:25:39;99071.84;;;21.83;100.00
3434;BME280;1730;41.932;25.548;2022-09-01T01:30:35;99054.25;;;21.73;100.00
3434;BME280;1730;41.932;25.548;2022-09-01T01:33:02;99062.66;;;21.59;100.00
3434;BME280;1730;41.932;25.548;2022-09-01T01:35:32;99062.22;;;21.63;100.00
3434;BME280;1730;41.932;25.548;2022-09-01T01:38:01;99057.69;;;21.68;100.00
3434;BME280;1730;41.932;25.548;2022-09-01T01:40:32;99060.53;;;21.62;100.00
3434;BME280;1730;41.932;25.548;2022-09-01T01:42:58;99057.78;;;21.62;100.00
3434;BME280;1730;41.932;25.548;2022-09-01T01:45:27;99069.53;;;21.50;100.00
3434;BME280;1730;41.932;25.548;2022-09-01T01:47:53;99080.91;;;21.36;100.00
3434;BME280;1730;41.932;25.548;2022-09-01T01:50:29;99093.69;;;21.42;100.00
3434;BME280;1730;41.932;25.548;2022-09-01T01:52:58;99049.69;;;21.19;100.00
3434;BME280;1730;41.932;25.548;2022-09-01T01:55:26;99089.84;;;21.31;100.00
3434;BME280;1730;41.932;25.548;2022-09-01T01:57:56;99090.00;;;21.11;100.00
3434;BME280;1730;41.932;25.548;2022-09-01T02:00:26;99113.47;;;21.32;100.00
3434;BME280;1730;41.932;25.548;2022-09-01T02:02:52;99104.06;;;21.22;100.00
3434;BME280;1730;41.932;25.548;2022-09-01T02:05:28;99115.88;;;21.22;100.00
3434;BME280;1730;41.932;25.548;2022-09-01T02:07:56;99124.13;;;21.22;100.00
3434;BME280;1730;41.932;25.548;2022-09-01T02:10:28;99124.87;;;21.29;100.00
3434;BME280;1730;41.932;25.548;2022-09-01T02:12:59;99134.78;;;21.30;100.00
3434;BME280;1730;41.932;25.548;2022-09-01T02:15:30;99060.09;;;20.67;100.00
3434;BME280;1730;41.932;25.548;2022-09-01T02:17:59;99151.78;;;20.71;100.00
3434;BME280;1730;41.932;25.548;2022-09-01T02:20:26;99181.12;;;20.39;100.00
3434;BME280;1730;41.932;25.548;2022-09-01T02:22:54;99285.97;;;20.53;100.00
3434;BME280;1730;41.932;25.548;2022-09-01T02:25:22;99349.59;;;20.55;100.00
3434;BME280;1730;41.932;25.548;2022-09-01T02:27:49;99375.06;;;20.68;100.00
3434;BME280;1730;41.932;25.548;2022-09-01T02:30:20;99251.53;;;20.19;100.00
3434;BME280;1730;41.932;25.548;2022-09-01T02:32:46;99356.13;;;20.60;100.00
3434;BME280;1730;41.932;25.548;2022-09-01T02:35:12;99377.00;;;20.61;100.00
3434;BME280;1730;41.932;25.548;2022-09-01T02:37:38;99376.81;;;20.56;100.00
3434;BME280;1730;41.932;25.548;2022-09-01T02:40:08;99258.91;;;19.41;100.00
3434;BME280;1730;41.932;25.548;2022-09-01T02:42:36;99259.97;;;19.53;100.00
3434;BME280;1730;41.932;25.548;2022-09-01T02:45:06;99431.16;;;20.59;100.00
3434;BME280;1730;41.932;25.548;2022-09-01T02:47:36;99428.87;;;20.56;100.00
3434;BME280;1730;41.932;25.548;2022-09-01T02:50:06;99453.75;;;20.29;100.00
3434;BME280;1730;41.932;25.548;2022-09-01T02:52:38;99480.56;;;20.13;100.00
3434;BME280;1730;41.932;25.548;2022-09-01T02:55:06;99242.00;;;18.32;100.00
3434;BME280;1730;41.932;25.548;2022-09-01T02:57:32;99590.91;;;20.20;100.00
3434;BME280;1730;41.932;25.548;2022-09-01T02:59:59;99574.28;;;20.09;100.00
3434;BME280;1730;41.932;25.548;2022-09-01T03:02:24;99583.53;;;20.14;100.00
3434;BME280;1730;41.932;25.548;2022-09-01T03:04:54;99594.47;;;20.01;100.00
3434;BME280;1730;41.932;25.548;2022-09-01T03:07:20;99610.06;;;20.07;100.00
3434;BME280;1730;41.932;25.548;2022-09-01T03:10:06;99619.97;;;20.15;100.00
3434;BME280;1730;41.932;25.548;2022-09-01T03:12:34;99612.59;;;20.15;100.00
3434;BME280;1730;41.932;25.548;2022-09-01T03:15:00;99605.25;;;20.16;100.00
3434;BME280;1730;41.932;25.548;2022-09-01T03:17:26;99621.22;;;20.06;100.00
3434;BME280;1730;41.932;25.548;2022-09-01T03:19:51;99609.44;;;19.99;100.00
3434;BME280;1730;41.932;25.548;2022-09-01T03:22:18;99605.03;;;20.04;100.00
3434;BME280;1730;41.932;25.548;2022-09-01T03:24:44;99637.66;;;20.19;100.00
3434;BME280;1730;41.932;25.548;2022-09-01T03:27:10;99640.22;;;20.14;100.00
3434;BME280;1730;41.932;25.548;2022-09-01T03:29:36;99663.38;;;20.24;100.00
3434;BME280;1730;41.932;25.548;2022-09-01T03:32:03;99632.84;;;20.21;100.00
3434;BME280;1730;41.932;25.548;2022-09-01T03:34:29;99621.44;;;20.04;100.00
3434;BME280;1730;41.932;25.548;2022-09-01T03:36:59;99650.75;;;20.17;100.00
3434;BME280;1730;41.932;25.548;2022-09-01T03:39:26;99653.06;;;20.20;100.00
3434;BME280;1730;41.932;25.548;2022-09-01T03:41:52;99370.63;;;18.51;100.00
3434;BME280;1730;41.932;25.548;2022-09-01T03:44:18;99421.84;;;18.96;100.00
3434;BME280;1730;41.932;25.548;2022-09-01T03:46:43;99626.53;;;20.20;100.00
3434;BME280;1730;41.932;25.548;2022-09-01T03:49:09;99623.62;;;20.35;100.00
3434;BME280;1730;41.932;25.548;2022-09-01T03:51:40;99465.31;;;19.39;100.00
3434;BME280;1730;41.932;25.548;2022-09-01T03:54:07;99612.44;;;20.30;100.00
3434;BME280;1730;41.932;25.548;2022-09-01T03:56:34;99602.75;;;20.41;100.00
3434;BME280;1730;41.932;25.548;2022-09-01T03:59:00;99589.06;;;20.47;100.00
3434;BME280;1730;41.932;25.548;2022-09-01T04:01:27;99511.91;;;20.11;100.00
3434;BME280;1730;41.932;25.548;2022-09-01T04:03:53;99589.47;;;20.51;100.00
3434;BME280;1730;41.932;25.548;2022-09-01T04:06:19;99576.00;;;20.43;100.00
3434;BME280;1730;41.932;25.548;2022-09-01T04:08:48;99600.00;;;20.60;100.00
3434;BME280;1730;41.932;25.548;2022-09-01T04:11:17;99553.63;;;20.59;100.00
3434;BME280;1730;41.932;25.548;2022-09-01T04:13:44;99478.19;;;20.23;100.00
3434;BME280;1730;41.932;25.548;2022-09-01T04:16:26;99515.06;;;20.60;100.00
3434;BME280;1730;41.932;25.548;2022-09-01T04:19:12;99473.75;;;20.62;100.00
3434;BME280;1730;41.932;25.548;2022-09-01T04:21:46;99458.13;;;20.69;100.00
3434;BME280;1730;41.932;25.548;2022-09-01T04:24:12;99455.59;;;20.67;100.00
3434;BME280;1730;41.932;25.548;2022-09-01T04:26:41;99438.38;;;20.98;100.00
3434;BME280;1730;41.932;25.548;2022-09-01T04:29:07;99288.78;;;20.40;100.00
3434;BME280;1730;41.932;25.548;2022-09-01T04:31:35;99383.69;;;21.41;100.00
3434;BME280;1730;41.932;25.548;2022-09-01T04:34:05;99290.41;;;21.66;100.00
3434;BME280;1730;41.932;25.548;2022-09-01T04:36:39;99284.19;;;22.14;100.00
3434;BME280;1730;41.932;25.548;2022-09-01T04:39:07;99233.97;;;22.25;100.00
3434;BME280;1730;41.932;25.548;2022-09-01T04:41:37;99213.94;;;22.36;100.00
3434;BME280;1730;41.932;25.548;2022-09-01T04:44:05;99186.63;;;22.82;100.00
3434;BME280;1730;41.932;25.548;2022-09-01T04:46:34;99142.88;;;22.81;100.00
3434;BME280;1730;41.932;25.548;2022-09-01T04:49:04;99129.72;;;22.71;100.00
3434;BME280;1730;41.932;25.548;2022-09-01T04:51:40;99122.28;;;23.18;100.00
3434;BME280;1730;41.932;25.548;2022-09-01T04:54:06;99070.50;;;23.04;100.00
3434;BME280;1730;41.932;25.548;2022-09-01T04:56:35;99070.34;;;23.45;100.00
3434;BME280;1730;41.932;25.548;2022-09-01T04:59:02;99035.06;;;23.70;100.00
3434;BME280;1730;41.932;25.548;2022-09-01T05:01:32;99027.03;;;23.97;100.00
3434;BME280;1730;41.932;25.548;2022-09-01T05:04:21;99022.00;;;24.22;100.00
3434;BME280;1730;41.932;25.548;2022-09-01T05:06:49;99002.37;;;24.19;100.00
3434;BME280;1730;41.932;25.548;2022-09-01T05:09:18;98979.69;;;24.67;100.00
3434;BME280;1730;41.932;25.548;2022-09-01T05:11:43;98982.91;;;24.42;100.00
3434;BME280;1730;41.932;25.548;2022-09-01T05:14:12;98915.03;;;24.80;100.00
3434;BME280;1730;41.932;25.548;2022-09-01T05:16:43;98917.63;;;25.83;100.00
3434;BME280;1730;41.932;25.548;2022-09-01T05:19:09;98907.31;;;25.74;100.00
3434;BME280;1730;41.932;25.548;2022-09-01T05:21:43;98904.75;;;25.62;100.00
3434;BME280;1730;41.932;25.548;2022-09-01T05:24:14;98888.97;;;26.26;100.00
3434;BME280;1730;41.932;25.548;2022-09-01T05:26:42;98873.87;;;27.01;100.00
3434;BME280;1730;41.932;25.548;2022-09-01T05:29:09;98855.66;;;27.15;100.00
3434;BME280;1730;41.932;25.548;2022-09-01T05:31:43;98846.81;;;27.39;100.00
3434;BME280;1730;41.932;25.548;2022-09-01T05:34:10;98846.53;;;27.20;100.00
3434;BME280;1730;41.932;25.548;2022-09-01T05:36:41;98845.69;;;27.34;100.00
3434;BME280;1730;41.932;25.548;2022-09-01T05:39:10;98703.63;;;27.09;100.00
3434;BME280;1730;41.932;25.548;2022-09-01T05:41:40;98829.19;;;28.85;100.00
3434;BME280;1730;41.932;25.548;2022-09-01T05:44:07;98823.06;;;29.71;100.00
3434;BME280;1730;41.932;25.548;2022-09-01T05:46:34;98821.28;;;29.90;100.00
3434;BME280;1730;41.932;25.548;2022-09-01T05:49:03;98801.00;;;29.11;100.00
3434;BME280;1730;41.932;25.548;2022-09-01T05:51:32;98822.53;;;29.35;100.00
3434;BME280;1730;41.932;25.548;2022-09-01T05:53:59;98817.47;;;29.42;100.00
3434;BME280;1730;41.932;25.548;2022-09-01T05:56:28;98780.31;;;29.33;100.00
3434;BME280;1730;41.932;25.548;2022-09-01T05:58:54;98812.09;;;29.84;100.00
3434;BME280;1730;41.932;25.548;2022-09-01T06:01:23;98817.03;;;29.64;100.00
3434;BME280;1730;41.932;25.548;2022-09-01T06:03:52;98826.38;;;29.44;100.00
3434;BME280;1730;41.932;25.548;2022-09-01T06:06:34;98826.50;;;29.58;100.00
3434;BME280;1730;41.932;25.548;2022-09-01T06:09:06;98830.88;;;28.81;100.00
3434;BME280;1730;41.932;25.548;2022-09-01T06:11:32;98836.44;;;28.65;100.00
3434;BME280;1730;41.932;25.548;2022-09-01T06:13:59;98815.28;;;28.90;100.00
3434;BME280;1730;41.932;25.548;2022-09-01T06:16:26;98839.22;;;28.81;100.00
3434;BME280;1730;41.932;25.548;2022-09-01T06:18:53;98821.66;;;28.95;100.00
3434;BME280;1730;41.932;25.548;2022-09-01T06:21:20;98843.97;;;28.65;100.00
3434;BME280;1730;41.932;25.548;2022-09-01T06:23:47;98847.03;;;28.63;100.00
3434;BME280;1730;41.932;25.548;2022-09-01T06:26:27;98843.41;;;28.78;100.00
3434;BME280;1730;41.932;25.548;2022-09-01T06:28:59;98840.69;;;28.48;100.00
3434;BME280;1730;41.932;25.548;2022-09-01T06:31:28;98845.50;;;28.12;100.00
3434;BME280;1730;41.932;25.548;2022-09-01T06:34:00;98844.66;;;28.16;100.00
3434;BME280;1730;41.932;25.548;2022-09-01T06:36:28;98847.16;;;28.03;100.00
3434;BME280;1730;41.932;25.548;2022-09-01T06:38:57;98718.31;;;27.09;100.00
3434;BME280;1730;41.932;25.548;2022-09-01T06:41:26;98851.25;;;27.40;100.00
3434;BME280;1730;41.932;25.548;2022-09-01T06:43:53;98854.62;;;28.22;100.00
3434;BME280;1730;41.932;25.548;2022-09-01T06:46:22;98850.75;;;28.03;100.00
3434;BME280;1730;41.932;25.548;2022-09-01T06:48:50;98852.69;;;28.23;100.00
3434;BME280;1730;41.932;25.548;2022-09-01T06:51:20;98847.44;;;28.11;100.00
3434;BME280;1730;41.932;25.548;2022-09-01T06:53:48;98842.41;;;28.08;100.00
3434;BME280;1730;41.932;25.548;2022-09-01T06:56:22;98846.78;;;28.50;100.00
3434;BME280;1730;41.932;25.548;2022-09-01T06:58:51;98846.53;;;28.46;100.00
3434;BME280;1730;41.932;25.548;2022-09-01T07:01:19;98846.00;;;28.09;100.00
3434;BME280;1730;41.932;25.548;2022-09-01T07:03:47;98827.13;;;28.31;100.00
3434;BME280;1730;41.932;25.548;2022-09-01T07:06:16;98845.41;;;28.47;100.00
3434;BME280;1730;41.932;25.548;2022-09-01T07:08:42;98836.78;;;28.54;100.00
3434;BME280;1730;41.932;25.548;2022-09-01T07:11:31;98851.31;;;28.10;100.00
3434;BME280;1730;41.932;25.548;2022-09-01T07:14:01;98852.66;;;28.43;100.00
3434;BME280;1730;41.932;25.548;2022-09-01T07:16:30;98815.72;;;28.48;100.00
3434;BME280;1730;41.932;25.548;2022-09-01T07:19:00;98853.19;;;28.45;100.00
3434;BME280;1730;41.932;25.548;2022-09-01T07:21:28;98852.06;;;28.51;100.00
3434;BME280;1730;41.932;25.548;2022-09-01T07:23:57;98852.81;;;28.67;100.00
3434;BME280;1730;41.932;25.548;2022-09-01T07:26:26;98851.16;;;28.81;100.00
3434;BME280;1730;41.932;25.548;2022-09-01T07:28:56;98849.22;;;28.66;100.00
3434;BME280;1730;41.932;25.548;2022-09-01T07:31:27;98850.37;;;28.55;100.00
3434;BME280;1730;41.932;25.548;2022-09-01T07:33:56;98852.72;;;28.97;100.00
3434;BME280;1730;41.932;25.548;2022-09-01T07:36:24;98854.50;;;28.78;100.00
3434;BME280;1730;41.932;25.548;2022-09-01T07:38:49;98852.53;;;28.79;100.00
3434;BME280;1730;41.932;25.548;2022-09-01T07:41:24;98850.13;;;29.16;100.00
3434;BME280;1730;41.932;25.548;2022-09-01T07:43:51;98843.88;;;28.90;100.00
3434;BME280;1730;41.932;25.548;2022-09-01T07:46:20;98849.78;;;28.63;100.00
3434;BME280;1730;41.932;25.548;2022-09-01T07:48:48;98845.50;;;28.12;100.00
3434;BME280;1730;41.932;25.548;2022-09-01T07:51:17;98837.13;;;28.37;100.00
3434;BME280;1730;41.932;25.548;2022-09-01T07:53:46;98724.66;;;27.81;100.00
3434;BME280;1730;41.932;25.548;2022-09-01T07:56:17;98826.34;;;28.26;100.00
3434;BME280;1730;41.932;25.548;2022-09-01T07:58:46;98831.47;;;28.62;100.00
3434;BME280;1730;41.932;25.548;2022-09-01T08:01:24;98813.16;;;28.61;100.00
3434;BME280;1730;41.932;25.548;2022-09-01T08:03:57;98825.91;;;28.62;100.00
3434;BME280;1730;41.932;25.548;2022-09-01T08:06:25;98832.31;;;28.63;100.00
3434;BME280;1730;41.932;25.548;2022-09-01T08:08:53;98836.19;;;28.62;100.00
3434;BME280;1730;41.932;25.548;2022-09-01T08:11:23;98839.75;;;28.83;100.00
3434;BME280;1730;41.932;25.548;2022-09-01T08:13:51;98835.66;;;28.65;100.00
3434;BME280;1730;41.932;25.548;2022-09-01T08:16:18;98835.34;;;28.61;100.00
3434;BME280;1730;41.932;25.548;2022-09-01T08:18:51;98832.75;;;28.16;100.00
3434;BME280;1730;41.932;25.548;2022-09-01T08:21:18;98839.12;;;27.71;100.00
3434;BME280;1730;41.932;25.548;2022-09-01T08:23:48;98792.25;;;27.34;100.00
3434;BME280;1730;41.932;25.548;2022-09-01T08:26:17;98808.88;;;28.25;100.00
3434;BME280;1730;41.932;25.548;2022-09-01T08:28:47;98816.56;;;28.43;100.00
3434;BME280;1730;41.932;25.548;2022-09-01T08:31:15;98801.59;;;28.39;100.00
3434;BME280;1730;41.932;25.548;2022-09-01T08:33:43;98818.75;;;28.51;100.00
3434;BME280;1730;41.932;25.548;2022-09-01T08:36:10;98814.97;;;28.96;100.00
3434;BME280;1730;41.932;25.548;2022-09-01T08:38:38;98808.03;;;28.30;100.00
3434;BME280;1730;41.932;25.548;2022-09-01T08:41:05;98786.97;;;28.18;100.00
3434;BME280;1730;41.932;25.548;2022-09-01T08:46:13;98834.56;;;28.61;100.00
3434;BME280;1730;41.932;25.548;2022-09-01T08:48:54;98834.50;;;28.81;100.00
3434;BME280;1730;41.932;25.548;2022-09-01T08:51:26;98805.75;;;29.06;100.00
3434;BME280;1730;41.932;25.548;2022-09-01T08:56:37;98796.78;;;29.14;100.00
3434;BME280;1730;41.932;25.548;2022-09-01T08:59:05;98794.50;;;29.65;100.00
3434;BME280;1730;41.932;25.548;2022-09-01T09:10:04;98767.09;;;29.87;97.68
3434;BME280;1730;41.932;25.548;2022-09-01T09:12:42;98765.28;;;29.68;100.00
3434;BME280;1730;41.932;25.548;2022-09-01T09:15:30;98768.94;;;29.97;100.00
3434;BME280;1730;41.932;25.548;2022-09-01T09:18:28;98767.75;;;30.03;97.77
3434;BME280;1730;41.932;25.548;2022-09-01T09:21:04;98625.00;;;29.31;96.76
3434;BME280;1730;41.932;25.548;2022-09-01T09:23:35;98772.03;;;29.90;100.00
3434;BME280;1730;41.932;25.548;2022-09-01T09:26:03;98724.59;;;29.53;100.00
3434;BME280;1730;41.932;25.548;2022-09-01T09:28:29;98714.56;;;29.52;98.42
3434;BME280;1730;41.932;25.548;2022-09-01T09:31:24;98757.19;;;29.71;96.95
3434;BME280;1730;41.932;25.548;2022-09-01T09:33:49;98744.59;;;30.08;97.22
3434;BME280;1730;41.932;25.548;2022-09-01T09:36:18;98748.12;;;29.89;91.30
3434;BME280;1730;41.932;25.548;2022-09-01T09:38:45;98750.47;;;29.77;91.72
3434;BME280;1730;41.932;25.548;2022-09-01T09:41:20;98744.66;;;29.74;92.29
3434;BME280;1730;41.932;25.548;2022-09-01T09:44:14;98753.78;;;30.08;89.38
3434;BME280;1730;41.932;25.548;2022-09-01T09:46:43;98750.00;;;30.47;80.96
3434;BME280;1730;41.932;25.548;2022-09-01T09:51:51;98736.97;;;30.18;80.38
3434;BME280;1730;41.932;25.548;2022-09-01T09:54:26;98695.09;;;29.81;79.86
3434;BME280;1730;41.932;25.548;2022-09-01T10:02:39;98738.28;;;30.26;78.47
3434;BME280;1730;41.932;25.548;2022-09-01T10:07:50;98715.50;;;30.85;75.60
3434;BME280;1730;41.932;25.548;2022-09-01T10:10:37;98719.50;;;30.98;75.69
3434;BME280;1730;41.932;25.548;2022-09-01T10:13:10;98704.69;;;31.02;72.48
3434;BME280;1730;41.932;25.548;2022-09-01T10:15:36;98704.00;;;30.92;74.45
3434;BME280;1730;41.932;25.548;2022-09-01T10:18:16;98696.81;;;30.85;74.52
3434;BME280;1730;41.932;25.548;2022-09-01T10:20:52;98693.50;;;31.21;76.18
3434;BME280;1730;41.932;25.548;2022-09-01T10:23:29;98691.72;;;31.11;73.19
3434;BME280;1730;41.932;25.548;2022-09-01T10:26:00;98699.09;;;30.41;77.60
3434;BME280;1730;41.932;25.548;2022-09-01T10:28:28;98698.94;;;30.56;75.82
3434;BME280;1730;41.932;25.548;2022-09-01T10:30:56;98693.81;;;30.63;74.05
3434;BME280;1730;41.932;25.548;2022-09-01T10:33:23;98697.13;;;30.47;72.65
3434;BME280;1730;41.932;25.548;2022-09-01T10:35:52;98685.13;;;30.27;71.31
3434;BME280;1730;41.932;25.548;2022-09-01T10:38:22;98704.06;;;30.68;65.94
3434;BME280;1730;41.932;25.548;2022-09-01T10:40:53;98701.12;;;30.59;64.61
3434;BME280;1730;41.932;25.548;2022-09-01T10:43:47;98686.59;;;31.18;63.85
3434;BME280;1730;41.932;25.548;2022-09-01T10:49:19;98690.34;;;31.60;64.31
3434;BME280;1730;41.932;25.548;2022-09-01T10:51:48;98686.16;;;31.90;60.03
3434;BME280;1730;41.932;25.548;2022-09-01T10:57:11;98686.84;;;31.82;54.38
3434;BME280;1730;41.932;25.548;2022-09-01T10:59:46;98685.84;;;32.05;56.51
3434;BME280;1730;41.932;25.548;2022-09-01T11:02:16;98677.97;;;31.80;57.03
3434;BME280;1730;41.932;25.548;2022-09-01T11:16:15;98624.19;;;31.47;56.68
3434;BME280;1730;41.932;25.548;2022-09-01T11:18:44;98654.22;;;31.82;53.85
3434;BME280;1730;41.932;25.548;2022-09-01T11:21:23;98524.25;;;31.26;54.40
3434;BME280;1730;41.932;25.548;2022-09-01T11:23:49;98553.37;;;31.48;51.01
3434;BME280;1730;41.932;25.548;2022-09-01T11:29:00;98648.03;;;31.71;54.11
3434;BME280;1730;41.932;25.548;2022-09-01T11:31:29;98642.53;;;31.66;53.10
3434;BME280;1730;41.932;25.548;2022-09-01T11:34:11;98642.34;;;31.77;54.95
3434;BME280;1730;41.932;25.548;2022-09-01T11:45:06;98644.00;;;32.05;48.03
3434;BME280;1730;41.932;25.548;2022-09-01T11:47:39;98634.38;;;31.70;49.89
3434;BME280;1730;41.932;25.548;2022-09-01T11:50:24;98627.44;;;32.36;52.18
3434;BME280;1730;41.932;25.548;2022-09-01T11:53:11;98625.81;;;32.71;49.32
3434;BME280;1730;41.932;25.548;2022-09-01T11:56:16;98667.31;;;32.99;47.60
3434;BME280;1730;41.932;25.548;2022-09-01T11:58:42;98001.53;;;29.05;45.05
3434;BME280;1730;41.932;25.548;2022-09-01T12:03:43;98664.63;;;32.72;45.54
3434;BME280;1730;41.932;25.548;2022-09-01T12:06:12;98614.72;;;32.79;44.80
3434;BME280;1730;41.932;25.548;2022-09-01T12:08:51;98401.56;;;31.04;46.16
3434;BME280;1730;41.932;25.548;2022-09-01T12:11:21;98609.06;;;32.21;46.76
3434;BME280;1730;41.932;25.548;2022-09-01T12:14:18;98606.06;;;32.04;46.60
3434;BME280;1730;41.932;25.548;2022-09-01T12:16:55;98332.28;;;30.43;46.51
3434;BME280;1730;41.932;25.548;2022-09-01T12:19:26;98602.72;;;32.43;45.32
3434;BME280;1730;41.932;25.548;2022-09-01T12:22:02;98593.00;;;32.76;45.08
3434;BME280;1730;41.932;25.548;2022-09-01T12:24:31;98024.09;;;29.03;43.06
3434;BME280;1730;41.932;25.548;2022-09-01T12:26:58;98309.84;;;30.67;42.75
3434;BME280;1730;41.932;25.548;2022-09-01T12:29:26;98586.84;;;32.88;43.80
3434;BME280;1730;41.932;25.548;2022-09-01T12:31:54;98584.31;;;33.31;43.48
3434;BME280;1730;41.932;25.548;2022-09-01T12:37:19;98599.47;;;33.30;44.08
3434;BME280;1730;41.932;25.548;2022-09-01T12:39:48;98573.53;;;33.38;44.28
3434;BME280;1730;41.932;25.548;2022-09-01T12:47:42;98215.81;;;30.50;48.09
3434;BME280;1730;41.932;25.548;2022-09-01T12:50:52;98584.75;;;32.93;46.79
3434;BME280;1730;41.932;25.548;2022-09-01T12:52:58;98379.38;;;31.98;45.86
3434;BME280;1730;41.932;25.548;2022-09-01T12:55:29;98553.44;;;33.75;44.31
3434;BME280;1730;41.932;25.548;2022-09-01T12:57:59;98544.69;;;34.25;43.53
3434;BME280;1730;41.932;25.548;2022-09-01T13:00:30;98545.69;;;34.29;42.93
3434;BME280;1730;41.932;25.548;2022-09-01T13:03:13;98540.66;;;33.83;43.46
3434;BME280;1730;41.932;25.548;2022-09-01T13:05:41;98547.75;;;34.06;43.97
3434;BME280;1730;41.932;25.548;2022-09-01T13:08:23;98542.75;;;33.38;44.87
3434;BME280;1730;41.932;25.548;2022-09-01T13:11:14;98552.75;;;32.77;46.84
3434;BME280;1730;41.932;25.548;2022-09-01T13:13:42;98538.06;;;32.49;48.76
3434;BME280;1730;41.932;25.548;2022-09-01T13:16:08;98135.34;;;30.26;48.76
3434;BME280;1730;41.932;25.548;2022-09-01T13:18:41;98553.00;;;32.67;48.80
3434;BME280;1730;41.932;25.548;2022-09-01T13:21:11;98536.63;;;32.16;50.94
3434;BME280;1730;41.932;25.548;2022-09-01T13:23:38;98551.81;;;32.46;50.23
3434;BME280;1730;41.932;25.548;2022-09-01T13:26:04;98533.72;;;32.43;50.16
3434;BME280;1730;41.932;25.548;2022-09-01T13:28:30;98533.34;;;32.58;49.94
3434;BME280;1730;41.932;25.548;2022-09-01T13:31:01;98511.44;;;32.52;48.25
3434;BME280;1730;41.932;25.548;2022-09-01T13:33:32;98523.81;;;32.73;49.70
3434;BME280;1730;41.932;25.548;2022-09-01T13:36:00;98511.59;;;32.25;50.54
3434;BME280;1730;41.932;25.548;2022-09-01T13:38:27;98527.09;;;32.17;50.37
3434;BME280;1730;41.932;25.548;2022-09-01T13:40:52;98527.94;;;32.04;51.38
3434;BME280;1730;41.932;25.548;2022-09-01T13:43:20;98460.63;;;31.83;50.32
3434;BME280;1730;41.932;25.548;2022-09-01T13:45:49;98541.84;;;32.67;48.92
3434;BME280;1730;41.932;25.548;2022-09-01T13:49:17;98523.13;;;32.98;47.24
3434;BME280;1730;41.932;25.548;2022-09-01T13:51:49;97972.16;;;29.59;46.64
3434;BME280;1730;41.932;25.548;2022-09-01T14:01:01;98517.97;;;33.53;44.46
3434;BME280;1730;41.932;25.548;2022-09-01T14:03:51;98427.19;;;32.72;43.77
3434;BME280;1730;41.932;25.548;2022-09-01T14:11:52;98517.78;;;33.41;43.00
3434;BME280;1730;41.932;25.548;2022-09-01T14:14:20;98157.03;;;30.65;44.32
3434;BME280;1730;41.932;25.548;2022-09-01T14:16:46;98516.56;;;32.72;45.06
3434;BME280;1730;41.932;25.548;2022-09-01T14:19:12;98518.25;;;32.59;46.29
3434;BME280;1730;41.932;25.548;2022-09-01T14:21:41;98537.72;;;32.65;46.15
3434;BME280;1730;41.932;25.548;2022-09-01T14:24:06;98531.81;;;32.52;47.04
3434;BME280;1730;41.932;25.548;2022-09-01T14:26:32;98393.34;;;31.62;47.58
3434;BME280;1730;41.932;25.548;2022-09-01T14:29:01;98398.00;;;31.89;47.14
3434;BME280;1730;41.932;25.548;2022-09-01T14:31:27;98450.84;;;31.72;48.85
3434;BME280;1730;41.932;25.548;2022-09-01T14:33:56;98433.31;;;31.94;47.69
3434;BME280;1730;41.932;25.548;2022-09-01T14:36:24;98519.34;;;32.50;48.16
3434;BME280;1730;41.932;25.548;2022-09-01T14:38:51;98514.94;;;32.57;47.95
3434;BME280;1730;41.932;25.548;2022-09-01T14:41:27;98513.03;;;32.44;48.01